• Join FlightAware (Why Join?)
  • Login
  • US Flag 
07:12PM EST


 

Airport Tracker/Info


-or-


 

Live Flight TrackerFlight Track Log ✈ N39477 ✈ 27-Dec-2013 ✈ KAIZ - KFLV

Flight Track Log - Related Links

Times and Time Zones

All times are in EST time to prevent confusion due to time zone crossing. See the N39477 flight status page for this flight to view local times or setup timezone preferences in your user account.

Time Position Orientation Groundspeed Altitude Reporting Facility
EST Latitude Longitude Course Direction KTS MPH feet Rate Location/Type
04:07PM 38.1372 -92.6419 305° West 113 130 3,700  Level Kansas City Center
04:08PM 38.1536 -92.6719 305° West 109 125 4,400 660 Climbing Kansas City Center
04:09PM 38.1703 -92.7042 303° West 108 124 5,100 720 Climbing Kansas City Center
04:10PM 38.1872 -92.7331 307° West 105 121 6,000 720 Climbing Kansas City Center
04:11PM 38.2078 -92.7686 306° West 103 119 6,600 240 Climbing Kansas City Center
04:13PM 38.2073 -92.7497 305° West  Level Estimated
04:13PM 38.2278 -92.8025 307° West 110 127 6,600  Level Kansas City Center
04:14PM 38.2478 -92.8375 306° West 118 136 6,700  Climbing Kansas City Center
04:15PM 38.2683 -92.8736 306° West 122 140 6,600 -120 Descending Kansas City Center
04:16PM 38.2900 -92.9097 307° West 125 144 6,500 -60 Descending Kansas City Center
04:17PM 38.3100 -92.9442 307° West 124 143 6,500 -60 Level Kansas City Center
04:18PM 38.3300 -92.9792 306° West 122 140 6,400  Descending Kansas City Center
04:19PM 38.3542 -93.0211 306° West 122 140 6,500  Climbing Kansas City Center
04:20PM 38.3725 -93.0564 304° West 121 139 6,500  Level Kansas City Center
04:21PM 38.3897 -93.0928 301° West 120 138 6,500  Level Kansas City Center
04:22PM 38.4089 -93.1289 304° West 120 138 6,500  Level Kansas City Center
04:23PM 38.4297 -93.1633 308° West 121 139 6,500  Level Kansas City Center
04:24PM 38.4503 -93.1972 308° West 121 139 6,500  Level Kansas City Center
04:25PM 38.4711 -93.2322 307° West 122 140 6,500  Level Kansas City Center
04:26PM 38.4944 -93.2747 305° West 122 140 6,500  Level Kansas City Center
04:27PM 38.5128 -93.3103 303° West 121 139 6,500  Level Kansas City Center
04:28PM 38.5331 -93.3458 306° West 122 140 6,600  Climbing Kansas City Center
04:29PM 38.5517 -93.3819 303° West 122 140 6,600 -60 Level Kansas City Center
04:30PM 38.5719 -93.4181 306° West 123 142 6,500 -60 Descending Kansas City Center
04:31PM 38.5919 -93.4539 306° West 124 143 6,500  Level Kansas City Center
04:32PM 38.6131 -93.4889 308° West 124 143 6,600  Climbing Kansas City Center
04:33PM 38.6381 -93.5322 306° West 125 144 6,500 -60 Descending Kansas City Center
04:34PM 38.6583 -93.5692 305° West 126 145 6,500  Level Kansas City Center
04:35PM 38.6781 -93.6039 306° West 123 142 6,500  Level Kansas City Center
04:36PM 38.6964 -93.6392 304° West 120 138 6,500  Level Kansas City Center
04:37PM 38.7167 -93.6744 306° West 120 138 6,500 -60 Level Kansas City Center
04:38PM 38.7358 -93.7117 303° West 124 143 6,400  Descending Kansas City Center
04:39PM 38.7597 -93.7536 306° West 124 143 6,500  Climbing Kansas City Center
04:40PM 38.7794 -93.7883 306° West 121 139 6,500  Level Kansas City Center
04:41PM 38.7986 -93.8233 305° West 124 143 6,500  Level Kansas City Center
04:43PM 38.8197 -93.8639 304° West 123 142 6,500  Level Kansas City Center
04:44PM 38.8397 -93.8986 306° West 124 143 6,500  Level Kansas City Center
04:45PM 38.8614 -93.9408 303° West 125 144 6,500  Level Kansas City Center
04:46PM 38.8811 -93.9756 306° West 127 146 6,500  Level Kansas City Center
04:47PM 38.9028 -94.0156 305° West 121 139 6,500  Level Kansas City Center
04:48PM 38.9217 -94.0497 305° West 123 142 6,600  Climbing Kansas City Center
04:49PM 38.9428 -94.0897 304° West 122 140 6,600 -60 Level Kansas City Center
04:50PM 38.9614 -94.1242 305° West 121 139 6,500 -120 Descending Kansas City Center
04:51PM 38.9839 -94.1653 305° West 125 144 6,400 -60 Descending Kansas City Center
04:52PM 39.0033 -94.2003 306° West 127 146 6,400  Level Kansas City Center
04:53PM 39.0219 -94.2344 305° West 121 139 6,500  Climbing Kansas City Center
04:54PM 39.0433 -94.2733 305° West 118 136 6,500 -60 Level Kansas City Center
04:55PM 39.0622 -94.3086 305° West 124 143 6,400 -180 Descending Kansas City Center
04:56PM 39.0881 -94.3456 312° West 125 144 6,200 -300 Descending Kansas City Center
04:57PM 39.1131 -94.3769 316° Northwest 129 148 5,900 -420 Descending Kansas City Center
04:58PM 39.1417 -94.4139 315° West 131 151 5,400 -480 Descending Kansas City Center
04:59PM 39.1664 -94.4461 315° West 132 152 5,000 -480 Descending Kansas City Center
05:00PM 39.1967 -94.4828 317° Northwest 134 154 4,500 -420 Descending Kansas City Center
05:01PM 39.2233 -94.5133 318° Northwest 134 154 4,200 -360 Descending Kansas City Center
05:02PM 39.2433 -94.5567 301° West 127 146 3,800 -300 Descending Kansas City Center
05:03PM 39.2550 -94.5936 292° West 118 136 3,700 -60 Descending Kansas City Center
05:04PM 39.2686 -94.6361 292° West 115 132 3,700  Level Kansas City Center
05:05PM 39.2794 -94.6700 292° West 109 125 3,700  Level Kansas City Center
05:06PM 39.2942 -94.7092 296° West 108 124 3,700 -60 Level Kansas City Center
05:07PM 39.3097 -94.7419 302° West 112 129 3,600 -300 Descending Kansas City Center
05:08PM 39.3231 -94.7839 292° West 114 131 3,200 -540 Descending Kansas City Center
05:09PM 39.3367 -94.8203 296° West 117 135 2,600 -420 Descending Kansas City Center
05:10PM 39.3503 -94.8578 295° West 120 138 2,400 -240 Descending Kansas City Center